Time;durP1;ratioP1;P1;durP2;ratioP2;P2;SDS_P1;SDS_P2;PMS_P1;PMS_P2;Temp;Humidity;BMP_temperature;BMP_pressure;BME280_temperature;BME280_humidity;BME280_pressure;Samples;Min_cycle;Max_cycle;Signal;HPM_P1;HPM_P2
2021/08/15 00:00:52;;;;;;;13.23;9.70;;;23.50;99.90;;;;;;9684780;30;20762;-81
2021/08/15 00:05:54;;;;;;;9.87;9.00;;;23.40;99.90;;;;;;9685559;30;20225;-81
2021/08/15 00:10:57;;;;;;;9.57;8.77;;;23.40;99.90;;;;;;9686711;30;20214;-81
2021/08/15 00:15:59;;;;;;;10.77;9.50;;;23.30;99.90;;;;;;9702189;30;20729;-81
2021/08/15 00:21:01;;;;;;;10.50;9.70;;;23.30;99.90;;;;;;9682507;30;20651;-81
2021/08/15 00:26:05;;;;;;;10.53;9.73;;;23.20;99.90;;;;;;9667331;30;20862;-81
2021/08/15 00:31:07;;;;;;;10.63;9.63;;;23.10;99.90;;;;;;9665250;30;20695;-81
2021/08/15 00:36:09;;;;;;;10.13;9.23;;;23.10;99.90;;;;;;9694954;30;20313;-81
2021/08/15 00:41:13;;;;;;;9.53;8.77;;;23.10;99.90;;;;;;9680417;30;20282;-81
2021/08/15 00:46:15;;;;;;;11.33;10.23;;;23.00;99.90;;;;;;9677185;30;20370;-81
2021/08/15 00:51:17;;;;;;;10.07;9.27;;;23.00;99.90;;;;;;9649227;30;20270;-82
2021/08/15 00:56:20;;;;;;;10.77;9.60;;;23.00;99.90;;;;;;9672594;30;20233;-82
2021/08/15 01:01:23;;;;;;;11.23;10.23;;;22.90;99.90;;;;;;9647345;30;20306;-82
2021/08/15 01:06:25;;;;;;;15.50;9.60;;;22.90;99.90;;;;;;9639121;30;20239;-82
2021/08/15 01:11:32;;;;;;;10.73;9.67;;;22.90;99.90;;;;;;9651544;30;20207;-82
2021/08/15 01:16:35;;;;;;;14.77;9.33;;;22.80;99.90;;;;;;9672180;30;20239;-82
2021/08/15 01:21:39;;;;;;;10.10;9.10;;;22.80;99.90;;;;;;9684462;30;20230;-82
2021/08/15 01:26:43;;;;;;;12.07;11.07;;;22.70;99.90;;;;;;9682263;30;20234;-82
2021/08/15 01:31:47;;;;;;;10.37;9.43;;;22.70;99.90;;;;;;9683807;30;20592;-82
2021/08/15 01:36:49;;;;;;;11.80;10.70;;;22.60;99.90;;;;;;9647486;30;20268;-82
2021/08/15 01:41:51;;;;;;;12.33;11.20;;;22.60;99.90;;;;;;9647481;30;20665;-82
2021/08/15 01:46:54;;;;;;;10.50;9.60;;;22.60;99.90;;;;;;9634474;30;20228;-82
2021/08/15 01:51:56;;;;;;;11.70;10.70;;;22.50;99.90;;;;;;9615833;30;20242;-82
2021/08/15 01:56:58;;;;;;;15.57;10.33;;;22.40;99.90;;;;;;9615074;30;20267;-82
2021/08/15 02:02:02;;;;;;;12.27;10.70;;;22.40;99.90;;;;;;9614622;30;20587;-82
2021/08/15 02:07:05;;;;;;;11.77;10.67;;;22.40;99.90;;;;;;9629929;30;20238;-82
2021/08/15 02:12:08;;;;;;;12.07;11.07;;;22.30;99.90;;;;;;9647644;30;20278;-82
2021/08/15 02:17:11;;;;;;;12.07;11.07;;;22.30;99.90;;;;;;9658255;30;20270;-81
2021/08/15 02:22:13;;;;;;;11.90;10.90;;;22.30;99.90;;;;;;9673075;30;20217;-81
2021/08/15 02:27:15;;;;;;;12.63;11.33;;;22.20;99.90;;;;;;9703930;30;20609;-81
2021/08/15 02:32:19;;;;;;;12.10;11.07;;;22.20;99.90;;;;;;9701625;30;20800;-81
2021/08/15 02:37:21;;;;;;;12.70;11.50;;;22.20;99.90;;;;;;9687835;30;20675;-81
2021/08/15 02:42:23;;;;;;;11.50;10.60;;;22.10;99.90;;;;;;9686872;30;20210;-81
2021/08/15 02:47:27;;;;;;;12.93;11.73;;;22.10;99.90;;;;;;9685755;30;20246;-81
2021/08/15 02:52:29;;;;;;;10.63;9.77;;;22.10;99.90;;;;;;9648061;30;20330;-81
2021/08/15 02:57:31;;;;;;;12.33;11.13;;;22.10;99.90;;;;;;9663809;30;20307;-82
2021/08/15 03:02:35;;;;;;;12.73;11.53;;;22.10;99.90;;;;;;9647691;30;20211;-82
2021/08/15 03:07:37;;;;;;;12.17;11.07;;;22.00;99.90;;;;;;9648903;30;20231;-81
2021/08/15 03:12:39;;;;;;;13.20;11.13;;;22.00;99.90;;;;;;9663402;30;20250;-82
2021/08/15 03:17:42;;;;;;;11.77;10.77;;;22.00;99.90;;;;;;9676391;30;20265;-81
2021/08/15 03:22:44;;;;;;;12.77;11.77;;;21.90;99.90;;;;;;9671529;30;20210;-81
2021/08/15 03:27:46;;;;;;;11.60;10.33;;;21.90;99.90;;;;;;9672902;30;20731;-81
2021/08/15 03:32:50;;;;;;;12.50;11.30;;;21.90;99.90;;;;;;9716915;30;20218;-81
2021/08/15 03:37:52;;;;;;;12.53;11.53;;;21.90;99.90;;;;;;9697404;30;20248;-81
2021/08/15 03:42:54;;;;;;;12.07;11.07;;;21.90;99.90;;;;;;9696124;30;20211;-81
2021/08/15 03:47:58;;;;;;;12.63;11.67;;;21.80;99.90;;;;;;9695250;30;20321;-81
2021/08/15 03:53:00;;;;;;;11.77;10.70;;;21.80;99.90;;;;;;9696501;30;20257;-82
2021/08/15 03:58:02;;;;;;;12.13;10.97;;;21.80;99.90;;;;;;9694463;30;20245;-81
2021/08/15 04:03:05;;;;;;;12.20;11.20;;;21.80;99.90;;;;;;9681426;30;20267;-82
2021/08/15 04:08:08;;;;;;;12.50;11.40;;;21.80;99.90;;;;;;9665907;30;20237;-81
2021/08/15 04:13:10;;;;;;;12.33;11.27;;;21.70;99.90;;;;;;9666806;30;20253;-81
2021/08/15 04:18:14;;;;;;;12.80;11.53;;;21.70;99.90;;;;;;9680116;30;20612;-81
2021/08/15 04:23:16;;;;;;;12.00;10.77;;;21.70;99.90;;;;;;9694210;30;20586;-81
2021/08/15 04:28:18;;;;;;;11.87;10.67;;;21.70;99.90;;;;;;9694824;30;20724;-81
2021/08/15 04:33:24;;;;;;;12.67;11.67;;;21.70;99.90;;;;;;9694647;30;20445;-81
2021/08/15 04:38:26;;;;;;;12.00;11.00;;;21.60;99.90;;;;;;9695727;30;20709;-81
2021/08/15 04:43:28;;;;;;;11.13;10.33;;;21.60;99.90;;;;;;9693697;30;20215;-81
2021/08/15 04:48:32;;;;;;;11.47;10.57;;;21.60;99.90;;;;;;9697619;30;20245;-81
2021/08/15 04:53:34;;;;;;;12.23;11.27;;;21.60;99.90;;;;;;9700770;30;20229;-82
2021/08/15 04:58:37;;;;;;;12.77;11.57;;;21.60;99.90;;;;;;9682825;30;20222;-81
2021/08/15 05:03:40;;;;;;;12.67;11.50;;;21.60;99.90;;;;;;9680622;30;20278;-81
2021/08/15 05:08:42;;;;;;;12.93;11.73;;;21.60;99.90;;;;;;9677850;30;20233;-81
2021/08/15 05:13:45;;;;;;;13.67;12.37;;;21.60;99.90;;;;;;9694579;30;20583;-81
2021/08/15 05:18:49;;;;;;;14.40;13.10;;;21.70;99.90;;;;;;9628225;30;20240;-81
2021/08/15 05:23:51;;;;;;;13.10;12.00;;;21.70;99.90;;;;;;9619294;30;20215;-81
2021/08/15 05:28:53;;;;;;;12.87;11.77;;;21.70;99.90;;;;;;9603643;30;20314;-81
2021/08/15 05:33:57;;;;;;;13.60;12.50;;;21.80;99.90;;;;;;9624284;30;20236;-81
2021/08/15 05:38:59;;;;;;;13.03;12.00;;;21.80;99.90;;;;;;9702765;25;20632;-81
2021/08/15 05:44:01;;;;;;;12.97;11.97;;;21.90;99.90;;;;;;9739541;30;20588;-81
2021/08/15 05:49:05;;;;;;;13.03;11.90;;;21.90;99.90;;;;;;9704808;30;20253;-80
2021/08/15 05:54:08;;;;;;;13.10;12.00;;;21.90;99.90;;;;;;9706863;30;20246;-82
2021/08/15 05:59:10;;;;;;;14.53;12.90;;;22.00;99.90;;;;;;9719982;30;20238;-82
2021/08/15 06:04:13;;;;;;;12.87;11.57;;;22.00;99.90;;;;;;9697557;30;20302;-81
2021/08/15 06:09:15;;;;;;;13.00;11.77;;;22.10;99.90;;;;;;9703418;30;20235;-82
2021/08/15 06:14:18;;;;;;;13.90;12.80;;;22.10;99.90;;;;;;9700956;30;20241;-82
2021/08/15 06:19:21;;;;;;;12.70;11.60;;;22.20;99.90;;;;;;9700387;30;20239;-82
2021/08/15 06:24:23;;;;;;;12.43;11.37;;;22.20;99.90;;;;;;9710997;30;20653;-82
2021/08/15 06:29:25;;;;;;;13.03;11.73;;;22.30;99.90;;;;;;9739278;30;20225;-81
2021/08/15 06:34:28;;;;;;;13.83;12.63;;;22.40;99.90;;;;;;9743732;30;20238;-81
2021/08/15 06:39:31;;;;;;;14.10;13.00;;;22.50;99.90;;;;;;9723082;30;20234;-79
2021/08/15 06:44:36;;;;;;;13.40;12.20;;;22.60;99.90;;;;;;9722917;30;20587;-80
2021/08/15 06:49:40;;;;;;;12.73;11.53;;;22.70;99.90;;;;;;9696810;30;20258;-81
2021/08/15 06:54:42;;;;;;;13.27;12.10;;;22.80;99.90;;;;;;9699825;30;20250;-81
2021/08/15 06:59:44;;;;;;;11.93;11.03;;;22.90;99.90;;;;;;9699956;30;20847;-81
2021/08/15 07:04:47;;;;;;;14.03;12.93;;;23.00;99.90;;;;;;9701467;30;20214;-82
2021/08/15 07:09:49;;;;;;;14.40;13.13;;;23.10;99.90;;;;;;9701195;30;20241;-80
2021/08/15 07:14:51;;;;;;;15.60;14.20;;;23.10;99.90;;;;;;9700682;30;20396;-80
2021/08/15 07:19:55;;;;;;;18.40;15.10;;;23.30;99.90;;;;;;9701391;30;20261;-82
2021/08/15 07:24:57;;;;;;;15.10;13.80;;;23.40;99.90;;;;;;9703352;30;20212;-82
2021/08/15 07:29:59;;;;;;;14.63;13.20;;;23.50;99.90;;;;;;9703107;30;20234;-82
2021/08/15 07:35:03;;;;;;;15.00;13.60;;;23.60;99.90;;;;;;9702118;30;20246;-81
2021/08/15 07:40:07;;;;;;;17.60;14.90;;;23.80;99.90;;;;;;9703576;30;20606;-82
2021/08/15 07:45:10;;;;;;;14.13;12.83;;;24.20;99.90;;;;;;9715047;30;20246;-82
2021/08/15 07:50:14;;;;;;;15.70;14.20;;;24.50;99.90;;;;;;9701660;30;20298;-82
2021/08/15 07:55:16;;;;;;;14.33;12.83;;;24.90;99.90;;;;;;9698828;30;20242;-82
2021/08/15 08:00:18;;;;;;;13.30;11.97;;;25.30;99.90;;;;;;9698158;30;20705;-82
2021/08/15 08:05:22;;;;;;;14.90;13.70;;;25.60;99.90;;;;;;9698531;30;20199;-82
2021/08/15 08:10:24;;;;;;;13.13;12.10;;;25.90;99.90;;;;;;9699398;30;20226;-82
2021/08/15 08:15:26;;;;;;;12.83;11.53;;;26.10;99.90;;;;;;9702151;30;20231;-82
2021/08/15 08:20:32;;;;;;;13.70;12.30;;;26.30;99.90;;;;;;9697026;30;20326;-81
2021/08/15 08:25:35;;;;;;;13.00;11.97;;;26.50;99.90;;;;;;9688527;30;20207;-81
2021/08/15 08:30:37;;;;;;;12.60;11.30;;;26.70;99.90;;;;;;9678946;30;20238;-81
2021/08/15 08:35:40;;;;;;;14.07;12.80;;;27.00;99.90;;;;;;9693480;30;20731;-82
2021/08/15 08:40:44;;;;;;;14.40;13.00;;;27.20;99.90;;;;;;9685715;30;20238;-82
2021/08/15 08:45:47;;;;;;;14.33;13.00;;;27.50;99.90;;;;;;9699941;30;20215;-81
2021/08/15 08:50:52;;;;;;;15.57;12.30;;;27.80;99.90;;;;;;9700853;30;20654;-82
2021/08/15 08:55:54;;;;;;;14.27;13.07;;;27.90;99.90;;;;;;9700867;30;20245;-82
2021/08/15 09:00:56;;;;;;;12.13;11.17;;;28.00;99.90;;;;;;9700776;30;20609;-82
2021/08/15 09:05:59;;;;;;;11.97;10.97;;;28.00;99.90;;;;;;9700087;30;20713;-81
2021/08/15 09:11:13;;;;;;;13.73;12.37;;;28.00;99.90;;;;;;9701787;30;20250;-81
2021/08/15 09:16:15;;;;;;;14.10;12.80;;;27.90;99.90;;;;;;9720755;30;20242;-82
2021/08/15 09:21:29;;;;;;;13.07;11.87;;;27.80;99.90;;;;;;9709178;30;20217;-82
2021/08/15 09:26:31;;;;;;;12.70;11.70;;;27.80;99.90;;;;;;9690366;30;20230;-83
2021/08/15 09:31:33;;;;;;;12.80;11.60;;;27.80;99.90;;;;;;9722631;30;20218;-82
2021/08/15 09:36:43;;;;;;;14.00;12.60;;;28.10;99.90;;;;;;9698659;30;20234;-82
2021/08/15 09:41:52;;;;;;;13.20;12.10;;;28.50;99.90;;;;;;9699119;30;20215;-81
2021/08/15 09:46:59;;;;;;;12.20;11.20;;;28.90;99.60;;;;;;9718885;30;20238;-81
2021/08/15 09:52:04;;;;;;;13.67;12.27;;;29.20;99.60;;;;;;9733037;30;20711;-82
2021/08/15 09:57:10;;;;;;;12.13;11.03;;;29.30;98.60;;;;;;9719178;30;20732;-80
2021/08/15 10:02:17;;;;;;;12.20;11.00;;;29.60;98.70;;;;;;9729653;30;20328;-80
2021/08/15 10:07:20;;;;;;;11.80;10.70;;;29.90;97.60;;;;;;9725456;30;20257;-80
2021/08/15 10:12:23;;;;;;;11.30;10.40;;;30.30;97.70;;;;;;9711837;30;20319;-80
2021/08/15 10:17:29;;;;;;;10.70;9.80;;;30.60;97.30;;;;;;9710257;30;20234;-81
2021/08/15 10:22:35;;;;;;;12.50;11.40;;;30.70;97.10;;;;;;9689567;30;20207;-81
2021/08/15 10:27:55;;;;;;;10.67;9.83;;;30.50;96.50;;;;;;9700603;30;20293;-82
2021/08/15 10:33:22;;;;;;;10.63;9.60;;;30.30;97.40;;;;;;9729584;30;20210;-82
2021/08/15 10:38:32;;;;;;;10.83;9.90;;;30.20;96.60;;;;;;9707864;30;20234;-82
2021/08/15 10:44:07;;;;;;;10.30;9.30;;;30.00;97.50;;;;;;9711434;30;20246;-81
2021/08/15 10:49:10;;;;;;;11.37;10.37;;;29.70;96.60;;;;;;9697552;30;20234;-81
2021/08/15 10:55:07;;;;;;;12.33;11.27;;;29.70;97.90;;;;;;9701662;30;20236;-82
2021/08/15 11:00:48;;;;;;;12.83;9.90;;;29.70;98.10;;;;;;9713178;30;20230;-81
2021/08/15 11:05:50;;;;;;;11.87;10.87;;;29.60;97.90;;;;;;9710601;30;20233;-81
2021/08/15 11:11:06;;;;;;;12.20;11.10;;;29.30;98.50;;;;;;9715190;30;20321;-82
2021/08/15 11:16:47;;;;;;;11.70;10.70;;;29.00;99.10;;;;;;9733890;30;20270;-82
2021/08/15 11:22:15;;;;;;;11.27;10.27;;;28.70;99.80;;;;;;9712162;30;20211;-81
2021/08/15 11:27:24;;;;;;;11.80;10.60;;;28.70;99.40;;;;;;9713910;30;20234;-81
2021/08/15 11:32:29;;;;;;;12.27;11.17;;;28.80;99.60;;;;;;9704603;30;20228;-82
2021/08/15 11:37:34;;;;;;;12.03;10.93;;;28.80;99.30;;;;;;9733254;25;20305;-82
2021/08/15 11:42:36;;;;;;;12.17;11.20;;;28.70;99.40;;;;;;9693479;30;20225;-82
2021/08/15 11:47:41;;;;;;;13.83;12.53;;;28.40;99.90;;;;;;9709158;30;20261;-82
2021/08/15 11:52:43;;;;;;;15.17;11.80;;;28.20;99.90;;;;;;9707317;30;20237;-81
2021/08/15 11:57:46;;;;;;;13.33;11.60;;;27.90;99.90;;;;;;9731991;30;20240;-81
2021/08/15 12:03:05;;;;;;;20.87;12.90;;;27.70;99.90;;;;;;9731606;30;20221;-81
2021/08/15 12:08:09;;;;;;;14.80;13.50;;;27.50;99.90;;;;;;9705247;30;20600;-81
2021/08/15 12:13:17;;;;;;;13.17;12.00;;;27.30;99.90;;;;;;9740222;30;20233;-81
2021/08/15 12:18:52;;;;;;;14.97;13.57;;;27.20;99.90;;;;;;9719482;30;20233;-81
2021/08/15 12:24:00;;;;;;;15.80;14.27;;;27.00;99.90;;;;;;9694444;30;20219;-81
2021/08/15 12:29:05;;;;;;;16.50;12.50;;;26.90;99.90;;;;;;9701087;30;20240;-81
2021/08/15 12:34:17;;;;;;;14.23;13.03;;;26.90;99.90;;;;;;9710093;30;20269;-81
2021/08/15 12:39:27;;;;;;;13.43;12.20;;;26.80;99.90;;;;;;9695689;30;20246;-81
2021/08/15 12:44:32;;;;;;;15.90;14.50;;;26.70;99.90;;;;;;9680345;30;20207;-81
2021/08/15 12:49:38;;;;;;;14.83;13.63;;;26.70;99.90;;;;;;9716885;30;20241;-81
2021/08/15 12:55:00;;;;;;;15.03;13.60;;;26.50;99.90;;;;;;9724614;30;20249;-81
2021/08/15 13:00:04;;;;;;;14.93;13.70;;;26.40;99.90;;;;;;9746700;30;20297;-81
2021/08/15 13:05:08;;;;;;;16.20;14.60;;;26.40;99.90;;;;;;9731020;30;20210;-81
2021/08/15 13:10:12;;;;;;;14.27;12.90;;;26.40;99.90;;;;;;9731404;30;20256;-81
2021/08/15 13:15:14;;;;;;;14.27;13.10;;;26.40;99.90;;;;;;9727739;30;20248;-81
2021/08/15 13:20:20;;;;;;;14.93;13.53;;;26.50;99.90;;;;;;9687952;30;20227;-81
2021/08/15 13:25:22;;;;;;;13.83;12.53;;;26.60;99.90;;;;;;9685054;30;20215;-81
2021/08/15 13:30:24;;;;;;;14.87;13.60;;;26.60;99.90;;;;;;9728338;30;20296;-81
2021/08/15 13:35:28;;;;;;;11.30;9.43;;;26.60;99.90;;;;;;9734913;30;20230;-81
2021/08/15 13:40:31;;;;;;;8.77;6.77;;;26.50;99.90;;;;;;9702561;30;20329;-81
2021/08/15 13:45:34;;;;;;;41.47;13.67;;;26.30;99.90;;;;;;9711424;30;20672;-81
2021/08/15 13:50:37;;;;;;;19.73;16.07;;;25.90;99.90;;;;;;9736551;30;20240;-83
2021/08/15 13:55:39;;;;;;;21.70;19.50;;;24.90;99.90;;;;;;9707992;30;20222;-83
2021/08/15 14:00:42;;;;;;;19.40;17.70;;;23.90;99.90;;;;;;9710038;30;20284;-83
2021/08/15 14:05:46;;;;;;;20.00;18.20;;;23.50;99.90;;;;;;9744668;30;20206;-82
2021/08/15 14:10:49;;;;;;;21.00;19.20;;;23.20;99.90;;;;;;9729241;30;20238;-83
2021/08/15 14:15:51;;;;;;;17.70;16.10;;;23.20;99.90;;;;;;9730896;30;20226;-82
2021/08/15 14:20:55;;;;;;;19.23;17.20;;;23.00;99.90;;;;;;9729025;30;20421;-82
2021/08/15 14:25:57;;;;;;;17.80;16.30;;;22.90;99.90;;;;;;9715971;30;20588;-82
2021/08/15 14:30:59;;;;;;;16.47;15.03;;;22.80;99.90;;;;;;9726714;30;20242;-82
2021/08/15 14:36:03;;;;;;;18.03;15.93;;;22.70;99.90;;;;;;9678283;30;20764;-82
2021/08/15 14:41:06;;;;;;;16.20;14.80;;;22.70;99.90;;;;;;9701567;30;20310;-82
2021/08/15 14:46:08;;;;;;;14.53;13.37;;;22.70;99.90;;;;;;9713290;30;20309;-82
2021/08/15 14:51:17;;;;;;;15.63;14.40;;;22.90;99.90;;;;;;9742801;30;20234;-82
2021/08/15 14:56:20;;;;;;;14.40;13.30;;;23.20;99.90;;;;;;9719676;30;20252;-82
2021/08/15 15:01:29;;;;;;;13.77;12.73;;;23.40;99.90;;;;;;9708029;30;20301;-82
2021/08/15 15:06:36;;;;;;;14.73;13.50;;;23.50;99.90;;;;;;9726603;30;20211;-83
2021/08/15 15:11:39;;;;;;;18.10;16.40;;;23.50;99.90;;;;;;9728538;30;20226;-83
2021/08/15 15:16:44;;;;;;;15.40;14.20;;;23.40;99.90;;;;;;9704795;30;20285;-82
2021/08/15 15:21:49;;;;;;;15.27;13.97;;;23.50;99.90;;;;;;9718716;30;20206;-82
2021/08/15 15:26:51;;;;;;;17.17;15.57;;;23.50;99.90;;;;;;9729170;30;20245;-82
2021/08/15 15:31:54;;;;;;;16.17;14.93;;;23.50;99.90;;;;;;9729757;30;20205;-82
2021/08/15 15:36:57;;;;;;;17.77;16.27;;;23.60;99.90;;;;;;9729884;30;20290;-82
2021/08/15 15:41:59;;;;;;;17.53;15.07;;;23.70;99.90;;;;;;9731398;30;20214;-82
2021/08/15 15:47:01;;;;;;;16.40;15.10;;;23.80;99.90;;;;;;9715947;30;20574;-82
2021/08/15 15:52:05;;;;;;;16.87;15.47;;;23.80;99.90;;;;;;9740077;30;20214;-82
2021/08/15 15:57:08;;;;;;;16.73;15.30;;;23.70;99.90;;;;;;9727866;30;20245;-82
2021/08/15 16:02:10;;;;;;;16.43;14.97;;;23.70;99.90;;;;;;9707754;30;20234;-82
2021/08/15 16:07:14;;;;;;;15.77;14.20;;;23.70;99.90;;;;;;9709692;30;20226;-82
2021/08/15 16:12:16;;;;;;;15.40;14.03;;;23.80;99.90;;;;;;9696727;30;20638;-83
2021/08/15 16:17:18;;;;;;;15.53;14.30;;;24.00;99.90;;;;;;9710377;30;20253;-83
2021/08/15 16:22:22;;;;;;;15.50;14.03;;;24.00;99.90;;;;;;9710171;30;20873;-83
2021/08/15 16:27:24;;;;;;;15.00;13.77;;;24.10;99.90;;;;;;9725677;30;20229;-83
2021/08/15 16:32:26;;;;;;;13.90;12.70;;;24.20;99.90;;;;;;9710610;30;20217;-83
2021/08/15 16:37:30;;;;;;;13.43;12.23;;;24.20;99.90;;;;;;9712468;30;20245;-83
2021/08/15 16:42:32;;;;;;;11.33;10.33;;;24.10;99.90;;;;;;9728090;30;20220;-83
2021/08/15 16:47:35;;;;;;;11.23;10.30;;;24.00;99.90;;;;;;9697739;30;20253;-83
2021/08/15 16:52:39;;;;;;;11.37;10.27;;;23.90;99.90;;;;;;9694269;30;20203;-83
2021/08/15 16:57:41;;;;;;;10.37;9.37;;;23.80;99.90;;;;;;9681100;30;20253;-83
2021/08/15 17:02:44;;;;;;;11.00;10.00;;;23.70;99.90;;;;;;9676466;30;20211;-83
2021/08/15 17:07:50;;;;;;;10.20;9.30;;;23.60;99.90;;;;;;9693282;30;20230;-82
2021/08/15 17:12:55;;;;;;;9.27;8.40;;;23.60;99.90;;;;;;9678004;30;20734;-83
2021/08/15 17:17:57;;;;;;;9.93;9.10;;;23.50;99.90;;;;;;9719587;30;20226;-83
2021/08/15 17:23:01;;;;;;;10.00;9.10;;;23.30;99.90;;;;;;9713532;30;20742;-83
2021/08/15 17:28:03;;;;;;;9.80;8.93;;;23.10;99.90;;;;;;9698958;30;20318;-84
2021/08/15 17:33:05;;;;;;;10.30;9.47;;;23.00;99.90;;;;;;9699759;30;20214;-82
2021/08/15 17:38:11;;;;;;;9.83;8.93;;;22.90;99.90;;;;;;9739391;24;20284;-80
2021/08/15 17:43:13;;;;;;;11.37;10.50;;;22.80;99.90;;;;;;9721300;30;20695;-81
2021/08/15 17:48:15;;;;;;;10.87;10.03;;;22.70;99.90;;;;;;9721909;30;20234;-81
2021/08/15 17:53:18;;;;;;;12.37;11.23;;;22.50;99.90;;;;;;9721220;30;20210;-81
2021/08/15 17:58:20;;;;;;;14.33;11.90;;;22.40;99.90;;;;;;9737016;30;20255;-81
2021/08/15 18:03:23;;;;;;;13.47;11.80;;;22.30;99.90;;;;;;9737680;30;20210;-81
2021/08/15 18:08:26;;;;;;;13.23;12.13;;;22.30;99.90;;;;;;9722254;30;20225;-81
2021/08/15 18:13:28;;;;;;;13.87;12.73;;;22.30;99.90;;;;;;9738102;30;20241;-82
2021/08/15 18:18:30;;;;;;;14.20;12.60;;;22.30;99.90;;;;;;9738395;30;20242;-80
2021/08/15 18:23:34;;;;;;;15.00;13.50;;;22.30;99.90;;;;;;9744946;30;20239;-81
2021/08/15 18:28:37;;;;;;;14.33;13.13;;;22.30;99.90;;;;;;9743658;30;20234;-82
2021/08/15 18:33:39;;;;;;;15.40;13.90;;;22.30;99.90;;;;;;9719601;30;20234;-82
2021/08/15 18:38:42;;;;;;;15.33;13.80;;;22.30;99.90;;;;;;9705462;30;20782;-82
2021/08/15 18:43:44;;;;;;;15.90;14.30;;;22.30;99.90;;;;;;9718504;30;20580;-82
2021/08/15 18:48:46;;;;;;;14.57;13.27;;;22.40;99.90;;;;;;9733703;30;20292;-83
2021/08/15 18:53:50;;;;;;;15.40;13.93;;;22.40;99.90;;;;;;9718068;30;20245;-82
2021/08/15 18:58:52;;;;;;;13.40;12.10;;;22.40;99.90;;;;;;9705120;30;20620;-82
2021/08/15 19:03:54;;;;;;;13.47;12.20;;;22.40;99.90;;;;;;9734142;30;20202;-81
2021/08/15 19:08:58;;;;;;;14.33;12.83;;;22.40;99.90;;;;;;9716880;30;20700;-81
2021/08/15 19:14:00;;;;;;;15.57;13.97;;;22.30;99.90;;;;;;9733064;30;20301;-81
2021/08/15 19:19:02;;;;;;;15.20;13.97;;;22.30;99.90;;;;;;9716805;30;20251;-81
2021/08/15 19:24:06;;;;;;;15.17;13.77;;;22.30;99.90;;;;;;9730958;30;20210;-81
2021/08/15 19:29:08;;;;;;;15.63;14.07;;;22.30;99.90;;;;;;9717499;30;20587;-81
2021/08/15 19:34:11;;;;;;;15.37;14.03;;;22.30;99.90;;;;;;9715383;30;20214;-81
2021/08/15 19:39:16;;;;;;;15.97;14.47;;;22.30;99.90;;;;;;9729981;30;20683;-81
2021/08/15 19:44:18;;;;;;;14.63;13.43;;;22.30;99.90;;;;;;9717463;30;20209;-82
2021/08/15 19:49:20;;;;;;;16.93;15.43;;;22.30;99.90;;;;;;9728537;30;20281;-82
2021/08/15 19:54:24;;;;;;;14.47;13.13;;;22.30;99.90;;;;;;9727319;30;20653;-82
2021/08/15 19:59:26;;;;;;;14.70;13.30;;;22.30;99.90;;;;;;9711546;30;20242;-82
2021/08/15 20:04:28;;;;;;;16.40;14.70;;;22.30;99.90;;;;;;9727032;30;20206;-82
2021/08/15 20:09:32;;;;;;;14.43;13.23;;;22.30;99.90;;;;;;9727504;30;20253;-80
2021/08/15 20:14:34;;;;;;;15.13;14.00;;;22.30;99.90;;;;;;9715570;30;20717;-82
2021/08/15 20:19:36;;;;;;;15.43;13.83;;;22.30;99.90;;;;;;9713549;30;20786;-81
2021/08/15 20:24:39;;;;;;;15.33;13.87;;;22.30;99.90;;;;;;9714299;30;20628;-80
2021/08/15 20:29:41;;;;;;;14.17;13.07;;;22.30;99.90;;;;;;9714308;30;20230;-83
2021/08/15 20:34:44;;;;;;;13.80;12.50;;;22.30;99.90;;;;;;9714063;30;20303;-82
2021/08/15 20:39:47;;;;;;;14.80;13.60;;;22.30;99.90;;;;;;9714060;30;20261;-81
2021/08/15 20:44:49;;;;;;;15.17;13.77;;;22.30;99.90;;;;;;9714017;30;20238;-82
2021/08/15 20:49:51;;;;;;;14.33;12.77;;;22.30;99.90;;;;;;9728682;30;20280;-81
2021/08/15 20:54:58;;;;;;;13.90;12.60;;;22.30;99.90;;;;;;9711151;30;20652;-81
2021/08/15 21:00:44;;;;;;;14.40;12.90;;;22.30;99.90;;;;;;9729309;30;20238;-82
2021/08/15 21:05:46;;;;;;;15.57;13.27;;;22.30;99.90;;;;;;9712780;30;20297;-81
2021/08/15 21:10:50;;;;;;;17.10;12.90;;;22.30;99.90;;;;;;9717446;30;20234;-82
2021/08/15 21:15:53;;;;;;;13.70;11.57;;;22.20;99.90;;;;;;9718834;30;20232;-82
2021/08/15 21:20:55;;;;;;;14.47;12.37;;;22.20;99.90;;;;;;9705300;30;20238;-81
2021/08/15 21:25:59;;;;;;;13.77;12.30;;;22.10;99.90;;;;;;9719965;30;20222;-81
2021/08/15 21:31:01;;;;;;;14.87;13.07;;;22.10;99.90;;;;;;9735558;30;20233;-83
2021/08/15 21:36:03;;;;;;;13.03;11.83;;;22.10;99.90;;;;;;9719492;30;20233;-81
2021/08/15 21:41:06;;;;;;;14.30;12.97;;;22.10;99.90;;;;;;9717164;30;20719;-82
2021/08/15 21:46:09;;;;;;;13.43;12.17;;;22.00;99.90;;;;;;9732841;30;20577;-81
2021/08/15 21:51:12;;;;;;;14.67;13.20;;;22.00;99.90;;;;;;9702491;30;20249;-81
2021/08/15 21:56:15;;;;;;;14.37;12.97;;;22.00;99.90;;;;;;9716206;30;20225;-81
2021/08/15 22:01:17;;;;;;;14.00;12.60;;;22.00;99.90;;;;;;9696354;30;20604;-81
2021/08/15 22:06:19;;;;;;;14.50;12.87;;;22.00;99.90;;;;;;9695502;30;20296;-81
2021/08/15 22:11:23;;;;;;;12.20;11.20;;;22.00;99.90;;;;;;9753602;30;20257;-81
2021/08/15 22:16:25;;;;;;;13.83;12.50;;;22.00;99.90;;;;;;9752449;30;20233;-81
2021/08/15 22:21:27;;;;;;;13.60;12.20;;;21.90;99.90;;;;;;9738091;30;20238;-82
2021/08/15 22:26:31;;;;;;;12.83;11.63;;;21.90;99.90;;;;;;9716093;30;20209;-82
2021/08/15 22:31:34;;;;;;;15.50;13.77;;;21.80;99.90;;;;;;9718171;30;20238;-81
2021/08/15 22:36:36;;;;;;;14.50;13.07;;;21.70;99.90;;;;;;9733690;30;20225;-81
2021/08/15 22:41:39;;;;;;;14.43;13.03;;;21.70;99.90;;;;;;9718221;30;20301;-82
2021/08/15 22:46:41;;;;;;;15.30;13.83;;;21.70;99.90;;;;;;9718731;30;20325;-82
2021/08/15 22:51:44;;;;;;;15.73;14.43;;;21.70;99.90;;;;;;9731196;30;20242;-82
2021/08/15 22:56:47;;;;;;;15.07;13.87;;;21.70;99.90;;;;;;9734806;30;20704;-81
2021/08/15 23:01:50;;;;;;;15.90;13.37;;;21.70;99.90;;;;;;9765146;30;20232;-82
2021/08/15 23:06:52;;;;;;;15.83;14.20;;;21.70;99.90;;;;;;9736688;30;20216;-82
2021/08/15 23:11:55;;;;;;;14.80;13.40;;;21.70;99.90;;;;;;9736328;30;20240;-82
2021/08/15 23:16:57;;;;;;;15.47;14.17;;;21.70;99.90;;;;;;9736588;30;20724;-82
2021/08/15 23:21:59;;;;;;;14.47;12.90;;;21.70;99.90;;;;;;9745323;30;20279;-80
2021/08/15 23:27:03;;;;;;;13.20;12.20;;;21.70;99.90;;;;;;9729504;30;20210;-83
2021/08/15 23:32:06;;;;;;;14.57;13.27;;;21.70;99.90;;;;;;9714218;30;20638;-81
2021/08/15 23:37:09;;;;;;;14.17;12.87;;;21.70;99.90;;;;;;9716325;30;20738;-81
2021/08/15 23:42:12;;;;;;;15.07;12.73;;;21.70;99.90;;;;;;9712251;30;20269;-81
2021/08/15 23:47:14;;;;;;;14.67;13.27;;;21.70;99.90;;;;;;9726312;30;20202;-82
2021/08/15 23:52:16;;;;;;;14.17;12.53;;;21.70;99.90;;;;;;9711863;30;20218;-81
2021/08/15 23:57:20;;;;;;;14.70;13.33;;;21.70;99.90;;;;;;9739210;30;20217;-82
